sensor_id;sensor_type;location;lat;lon;timestamp;P1;P2;P0
35654;PMS1003;21773;50.010;19.972;2023-05-07T00:02:02;22.20;20.20;18.00
35654;PMS1003;21773;50.010;19.972;2023-05-07T00:05:06;20.60;18.60;14.60
35654;PMS1003;21773;50.010;19.972;2023-05-07T00:08:10;20.60;20.00;18.00
35654;PMS1003;21773;50.010;19.972;2023-05-07T00:11:14;21.00;19.00;16.40
35654;PMS1003;21773;50.010;19.972;2023-05-07T00:14:17;25.00;23.00;20.00
35654;PMS1003;21773;50.010;19.972;2023-05-07T00:17:22;22.25;21.25;18.25
35654;PMS1003;21773;50.010;19.972;2023-05-07T00:20:25;21.50;19.00;17.00
35654;PMS1003;21773;50.010;19.972;2023-05-07T00:23:29;23.60;19.60;16.60
35654;PMS1003;21773;50.010;19.972;2023-05-07T00:26:32;24.00;22.50;18.75
35654;PMS1003;21773;50.010;19.972;2023-05-07T00:29:36;22.20;20.20;17.20
35654;PMS1003;21773;50.010;19.972;2023-05-07T00:32:40;21.00;20.00;18.00
35654;PMS1003;21773;50.010;19.972;2023-05-07T00:35:44;23.00;22.33;20.00
35654;PMS1003;21773;50.010;19.972;2023-05-07T00:38:47;22.40;19.40;16.80
35654;PMS1003;21773;50.010;19.972;2023-05-07T00:41:50;22.80;21.00;18.00
35654;PMS1003;21773;50.010;19.972;2023-05-07T00:44:54;24.40;23.00;19.00
35654;PMS1003;21773;50.010;19.972;2023-05-07T00:47:59;22.40;19.40;17.00
35654;PMS1003;21773;50.010;19.972;2023-05-07T00:51:04;21.00;20.00;16.75
35654;PMS1003;21773;50.010;19.972;2023-05-07T00:54:07;19.60;17.20;14.00
35654;PMS1003;21773;50.010;19.972;2023-05-07T00:57:11;21.60;20.60;17.60
35654;PMS1003;21773;50.010;19.972;2023-05-07T01:00:14;20.00;17.40;15.00
35654;PMS1003;21773;50.010;19.972;2023-05-07T01:03:19;24.60;21.20;18.00
35654;PMS1003;21773;50.010;19.972;2023-05-07T01:06:24;17.00;16.00;14.00
35654;PMS1003;21773;50.010;19.972;2023-05-07T01:09:29;19.60;17.00;14.20
35654;PMS1003;21773;50.010;19.972;2023-05-07T01:12:33;18.00;16.75;13.75
35654;PMS1003;21773;50.010;19.972;2023-05-07T01:15:38;16.20;16.00;14.00
35654;PMS1003;21773;50.010;19.972;2023-05-07T01:18:43;20.60;19.00;16.00
35654;PMS1003;21773;50.010;19.972;2023-05-07T01:21:49;18.00;18.00;15.00
35654;PMS1003;21773;50.010;19.972;2023-05-07T01:24:59;19.25;17.25;15.25
35654;PMS1003;21773;50.010;19.972;2023-05-07T01:28:04;18.00;17.25;15.25
35654;PMS1003;21773;50.010;19.972;2023-05-07T01:31:10;17.80;16.80;14.80
35654;PMS1003;21773;50.010;19.972;2023-05-07T01:34:17;18.50;16.50;15.50
35654;PMS1003;21773;50.010;19.972;2023-05-07T01:37:22;21.00;18.60;16.00
35654;PMS1003;21773;50.010;19.972;2023-05-07T01:40:28;21.00;20.00;18.00
35654;PMS1003;21773;50.010;19.972;2023-05-07T01:43:32;17.20;15.20;14.00
35654;PMS1003;21773;50.010;19.972;2023-05-07T01:46:36;19.00;17.00;15.40
35654;PMS1003;21773;50.010;19.972;2023-05-07T01:49:40;16.00;16.00;14.00
35654;PMS1003;21773;50.010;19.972;2023-05-07T01:52:44;20.25;19.25;15.25
35654;PMS1003;21773;50.010;19.972;2023-05-07T01:55:49;18.60;17.00;14.00
35654;PMS1003;21773;50.010;19.972;2023-05-07T01:58:54;21.00;19.00;16.00
35654;PMS1003;21773;50.010;19.972;2023-05-07T02:01:58;16.80;15.80;13.80
35654;PMS1003;21773;50.010;19.972;2023-05-07T02:05:03;21.00;19.40;16.40
35654;PMS1003;21773;50.010;19.972;2023-05-07T02:08:06;20.00;18.00;14.20
35654;PMS1003;21773;50.010;19.972;2023-05-07T02:11:12;20.25;19.25;16.50
35654;PMS1003;21773;50.010;19.972;2023-05-07T02:14:15;22.33;19.33;16.33
35654;PMS1003;21773;50.010;19.972;2023-05-07T02:17:18;22.00;19.00;16.75
35654;PMS1003;21773;50.010;19.972;2023-05-07T02:20:21;24.00;21.00;17.00
35654;PMS1003;21773;50.010;19.972;2023-05-07T02:23:25;23.00;21.20;17.20
35654;PMS1003;21773;50.010;19.972;2023-05-07T02:26:30;21.60;20.00;17.00
35654;PMS1003;21773;50.010;19.972;2023-05-07T02:29:33;19.00;16.80;14.00
35654;PMS1003;21773;50.010;19.972;2023-05-07T02:32:36;20.75;19.00;16.00
35654;PMS1003;21773;50.010;19.972;2023-05-07T02:35:40;22.00;19.00;16.00
35654;PMS1003;21773;50.010;19.972;2023-05-07T02:38:45;18.00;15.67;13.00
35654;PMS1003;21773;50.010;19.972;2023-05-07T02:41:51;18.75;16.00;13.00
35654;PMS1003;21773;50.010;19.972;2023-05-07T02:44:54;15.00;15.00;13.00
35654;PMS1003;21773;50.010;19.972;2023-05-07T02:47:58;16.80;15.80;13.20
35654;PMS1003;21773;50.010;19.972;2023-05-07T02:51:02;14.00;13.80;11.80
35654;PMS1003;21773;50.010;19.972;2023-05-07T02:54:09;16.67;15.00;12.67
35654;PMS1003;21773;50.010;19.972;2023-05-07T02:57:14;13.20;12.00;11.00
35654;PMS1003;21773;50.010;19.972;2023-05-07T03:00:18;15.20;14.00;13.00
35654;PMS1003;21773;50.010;19.972;2023-05-07T03:03:35;16.40;15.40;13.00
35654;PMS1003;21773;50.010;19.972;2023-05-07T03:06:38;15.00;14.00;11.80
35654;PMS1003;21773;50.010;19.972;2023-05-07T03:09:42;17.00;15.00;13.75
35654;PMS1003;21773;50.010;19.972;2023-05-07T03:12:46;15.00;13.60;12.00
35654;PMS1003;21773;50.010;19.972;2023-05-07T03:15:51;14.00;13.40;12.00
35654;PMS1003;21773;50.010;19.972;2023-05-07T03:18:55;14.00;12.00;10.40
35654;PMS1003;21773;50.010;19.972;2023-05-07T03:21:58;12.00;12.00;11.00
35654;PMS1003;21773;50.010;19.972;2023-05-07T03:25:02;13.40;12.00;12.00
35654;PMS1003;21773;50.010;19.972;2023-05-07T03:28:07;12.00;12.00;11.00
35654;PMS1003;21773;50.010;19.972;2023-05-07T03:31:16;14.00;13.60;12.00
35654;PMS1003;21773;50.010;19.972;2023-05-07T03:34:19;13.40;12.60;11.00
35654;PMS1003;21773;50.010;19.972;2023-05-07T03:37:24;10.00;10.00;9.00
35654;PMS1003;21773;50.010;19.972;2023-05-07T03:40:27;11.50;11.50;10.25
35654;PMS1003;21773;50.010;19.972;2023-05-07T03:43:32;9.20;9.00;8.00
35654;PMS1003;21773;50.010;19.972;2023-05-07T03:46:40;10.40;9.40;9.00
35654;PMS1003;21773;50.010;19.972;2023-05-07T03:49:45;12.00;11.00;10.00
35654;PMS1003;21773;50.010;19.972;2023-05-07T03:52:50;8.80;8.80;7.80
35654;PMS1003;21773;50.010;19.972;2023-05-07T03:55:55;9.00;8.60;8.00
35654;PMS1003;21773;50.010;19.972;2023-05-07T03:59:00;8.00;7.00;6.00
35654;PMS1003;21773;50.010;19.972;2023-05-07T04:02:04;7.60;7.60;6.60
35654;PMS1003;21773;50.010;19.972;2023-05-07T04:05:08;6.00;6.00;5.50
35654;PMS1003;21773;50.010;19.972;2023-05-07T04:08:13;9.00;9.00;7.40
35654;PMS1003;21773;50.010;19.972;2023-05-07T04:11:21;8.00;7.00;7.00
35654;PMS1003;21773;50.010;19.972;2023-05-07T04:14:26;9.40;9.00;8.40
35654;PMS1003;21773;50.010;19.972;2023-05-07T04:17:29;5.00;5.00;4.00
35654;PMS1003;21773;50.010;19.972;2023-05-07T04:20:34;4.75;4.75;3.75
35654;PMS1003;21773;50.010;19.972;2023-05-07T04:23:40;6.00;5.40;5.00
35654;PMS1003;21773;50.010;19.972;2023-05-07T04:26:46;5.00;5.00;4.40
35654;PMS1003;21773;50.010;19.972;2023-05-07T04:29:51;4.00;4.00;3.20
35654;PMS1003;21773;50.010;19.972;2023-05-07T04:32:57;3.80;3.00;2.00
35654;PMS1003;21773;50.010;19.972;2023-05-07T04:36:03;6.25;6.00;6.00
35654;PMS1003;21773;50.010;19.972;2023-05-07T04:39:12;6.00;5.60;5.60
35654;PMS1003;21773;50.010;19.972;2023-05-07T04:42:19;5.00;4.60;4.40
35654;PMS1003;21773;50.010;19.972;2023-05-07T04:45:24;4.00;3.00;3.00
35654;PMS1003;21773;50.010;19.972;2023-05-07T04:48:28;5.00;4.40;4.00
35654;PMS1003;21773;50.010;19.972;2023-05-07T04:51:33;6.00;5.00;5.00
35654;PMS1003;21773;50.010;19.972;2023-05-07T04:54:37;4.75;4.75;4.75
35654;PMS1003;21773;50.010;19.972;2023-05-07T04:57:41;6.00;5.50;5.50
35654;PMS1003;21773;50.010;19.972;2023-05-07T05:00:48;4.00;4.00;3.00
35654;PMS1003;21773;50.010;19.972;2023-05-07T05:03:52;6.40;6.40;6.00
35654;PMS1003;21773;50.010;19.972;2023-05-07T05:06:55;6.00;6.00;5.00
35654;PMS1003;21773;50.010;19.972;2023-05-07T05:09:59;4.80;4.20;4.20
35654;PMS1003;21773;50.010;19.972;2023-05-07T05:13:07;6.00;5.20;4.20
35654;PMS1003;21773;50.010;19.972;2023-05-07T05:16:12;5.40;5.00;5.00
35654;PMS1003;21773;50.010;19.972;2023-05-07T05:19:15;3.80;3.00;3.00
35654;PMS1003;21773;50.010;19.972;2023-05-07T05:22:19;6.00;6.00;6.00
35654;PMS1003;21773;50.010;19.972;2023-05-07T05:25:23;5.00;4.00;4.00
35654;PMS1003;21773;50.010;19.972;2023-05-07T05:28:26;5.00;4.00;3.80
35654;PMS1003;21773;50.010;19.972;2023-05-07T05:31:32;5.60;5.00;5.00
35654;PMS1003;21773;50.010;19.972;2023-05-07T05:34:36;5.00;4.00;4.00
35654;PMS1003;21773;50.010;19.972;2023-05-07T05:37:40;3.00;3.00;3.00
35654;PMS1003;21773;50.010;19.972;2023-05-07T05:40:43;5.40;5.00;5.00
35654;PMS1003;21773;50.010;19.972;2023-05-07T05:43:48;5.60;5.00;4.60
35654;PMS1003;21773;50.010;19.972;2023-05-07T05:46:54;5.00;5.00;4.00
35654;PMS1003;21773;50.010;19.972;2023-05-07T05:49:59;4.00;4.00;3.80
35654;PMS1003;21773;50.010;19.972;2023-05-07T05:53:02;2.40;2.40;2.40
35654;PMS1003;21773;50.010;19.972;2023-05-07T05:56:06;3.00;3.00;3.00
35654;PMS1003;21773;50.010;19.972;2023-05-07T05:59:11;3.00;2.00;2.00
35654;PMS1003;21773;50.010;19.972;2023-05-07T06:02:16;7.00;6.00;6.00
35654;PMS1003;21773;50.010;19.972;2023-05-07T06:05:20;5.00;4.50;4.50
35654;PMS1003;21773;50.010;19.972;2023-05-07T06:08:28;6.00;5.00;5.00
35654;PMS1003;21773;50.010;19.972;2023-05-07T06:11:33;5.00;5.00;4.40
35654;PMS1003;21773;50.010;19.972;2023-05-07T06:14:36;5.00;5.00;4.60
35654;PMS1003;21773;50.010;19.972;2023-05-07T06:17:41;3.60;3.60;3.20
35654;PMS1003;21773;50.010;19.972;2023-05-07T06:20:45;4.00;4.00;3.75
35654;PMS1003;21773;50.010;19.972;2023-05-07T06:23:57;4.00;4.00;3.00
35654;PMS1003;21773;50.010;19.972;2023-05-07T06:27:01;2.75;2.75;2.00
35654;PMS1003;21773;50.010;19.972;2023-05-07T06:30:06;3.00;3.00;3.00
35654;PMS1003;21773;50.010;19.972;2023-05-07T06:33:12;6.00;5.00;4.40
35654;PMS1003;21773;50.010;19.972;2023-05-07T06:36:16;5.00;5.00;5.00
35654;PMS1003;21773;50.010;19.972;2023-05-07T06:39:20;4.80;4.00;3.00
35654;PMS1003;21773;50.010;19.972;2023-05-07T06:42:25;3.80;3.20;3.20
35654;PMS1003;21773;50.010;19.972;2023-05-07T06:45:33;4.00;4.00;4.00
35654;PMS1003;21773;50.010;19.972;2023-05-07T06:48:40;2.40;2.40;2.00
35654;PMS1003;21773;50.010;19.972;2023-05-07T06:51:43;4.00;3.50;3.00
35654;PMS1003;21773;50.010;19.972;2023-05-07T06:54:46;4.00;4.00;4.00
35654;PMS1003;21773;50.010;19.972;2023-05-07T06:57:51;4.00;3.40;2.60
35654;PMS1003;21773;50.010;19.972;2023-05-07T07:00:57;4.00;4.00;3.00
35654;PMS1003;21773;50.010;19.972;2023-05-07T07:04:02;3.00;3.00;3.00
35654;PMS1003;21773;50.010;19.972;2023-05-07T07:07:06;4.80;4.80;4.00
35654;PMS1003;21773;50.010;19.972;2023-05-07T07:10:10;3.00;2.00;2.00
35654;PMS1003;21773;50.010;19.972;2023-05-07T07:13:14;4.00;4.00;3.75
35654;PMS1003;21773;50.010;19.972;2023-05-07T07:16:18;4.20;4.20;4.20
35654;PMS1003;21773;50.010;19.972;2023-05-07T07:19:24;4.60;4.60;3.60
35654;PMS1003;21773;50.010;19.972;2023-05-07T07:22:29;6.50;5.50;5.00
35654;PMS1003;21773;50.010;19.972;2023-05-07T07:25:32;5.00;5.00;4.00
35654;PMS1003;21773;50.010;19.972;2023-05-07T07:28:41;6.20;6.00;5.00
35654;PMS1003;21773;50.010;19.972;2023-05-07T07:31:48;6.00;5.25;5.00
35654;PMS1003;21773;50.010;19.972;2023-05-07T07:34:55;7.00;7.00;7.00
35654;PMS1003;21773;50.010;19.972;2023-05-07T07:37:58;6.00;6.00;6.00
35654;PMS1003;21773;50.010;19.972;2023-05-07T07:41:04;5.50;5.50;5.50
35654;PMS1003;21773;50.010;19.972;2023-05-07T07:44:07;4.00;3.00;3.00
35654;PMS1003;21773;50.010;19.972;2023-05-07T07:47:19;4.00;4.00;3.25
35654;PMS1003;21773;50.010;19.972;2023-05-07T07:50:25;2.00;2.00;2.00
35654;PMS1003;21773;50.010;19.972;2023-05-07T07:53:47;3.00;2.80;2.80
35654;PMS1003;21773;50.010;19.972;2023-05-07T07:56:51;4.00;3.00;3.00
35654;PMS1003;21773;50.010;19.972;2023-05-07T07:59:55;3.00;3.00;3.00
35654;PMS1003;21773;50.010;19.972;2023-05-07T08:02:59;7.25;7.25;7.25
35654;PMS1003;21773;50.010;19.972;2023-05-07T08:06:08;7.00;7.00;7.00
35654;PMS1003;21773;50.010;19.972;2023-05-07T08:09:12;6.60;6.60;6.20
35654;PMS1003;21773;50.010;19.972;2023-05-07T08:12:16;7.50;7.00;7.00
35654;PMS1003;21773;50.010;19.972;2023-05-07T08:15:19;9.00;8.00;8.00
35654;PMS1003;21773;50.010;19.972;2023-05-07T08:18:24;6.50;6.50;5.50
35654;PMS1003;21773;50.010;19.972;2023-05-07T08:21:33;4.00;3.50;3.50
35654;PMS1003;21773;50.010;19.972;2023-05-07T08:24:37;6.00;6.00;5.40
35654;PMS1003;21773;50.010;19.972;2023-05-07T08:27:40;5.00;5.00;5.00
35654;PMS1003;21773;50.010;19.972;2023-05-07T08:30:44;6.00;5.00;5.00
35654;PMS1003;21773;50.010;19.972;2023-05-07T08:33:48;7.00;7.00;6.60
35654;PMS1003;21773;50.010;19.972;2023-05-07T08:36:53;5.00;4.00;3.40
35654;PMS1003;21773;50.010;19.972;2023-05-07T08:39:58;4.80;4.80;4.20
35654;PMS1003;21773;50.010;19.972;2023-05-07T08:43:07;6.00;6.00;5.00
35654;PMS1003;21773;50.010;19.972;2023-05-07T08:46:11;2.00;2.00;2.00
35654;PMS1003;21773;50.010;19.972;2023-05-07T08:49:22;4.80;4.80;4.00
35654;PMS1003;21773;50.010;19.972;2023-05-07T08:52:27;4.00;4.00;3.40
35654;PMS1003;21773;50.010;19.972;2023-05-07T08:55:31;6.00;5.00;5.00
35654;PMS1003;21773;50.010;19.972;2023-05-07T08:58:36;4.00;3.80;3.00
35654;PMS1003;21773;50.010;19.972;2023-05-07T09:01:39;6.00;5.25;5.00
35654;PMS1003;21773;50.010;19.972;2023-05-07T09:04:43;6.40;5.40;5.00
35654;PMS1003;21773;50.010;19.972;2023-05-07T09:07:48;5.20;5.20;5.00
35654;PMS1003;21773;50.010;19.972;2023-05-07T09:10:56;9.40;9.40;9.40
35654;PMS1003;21773;50.010;19.972;2023-05-07T09:13:59;6.00;6.00;6.00
35654;PMS1003;21773;50.010;19.972;2023-05-07T09:17:10;4.00;4.00;4.00
35654;PMS1003;21773;50.010;19.972;2023-05-07T09:20:13;5.00;4.00;4.00
35654;PMS1003;21773;50.010;19.972;2023-05-07T09:23:18;7.00;7.00;6.00
35654;PMS1003;21773;50.010;19.972;2023-05-07T09:26:24;10.00;9.00;8.00
35654;PMS1003;21773;50.010;19.972;2023-05-07T09:29:30;5.00;4.20;3.20
35654;PMS1003;21773;50.010;19.972;2023-05-07T09:32:39;9.00;7.00;6.40
35654;PMS1003;21773;50.010;19.972;2023-05-07T09:35:50;5.20;5.20;4.80
35654;PMS1003;21773;50.010;19.972;2023-05-07T09:38:58;6.75;6.75;6.00
35654;PMS1003;21773;50.010;19.972;2023-05-07T09:42:04;6.40;5.80;5.40
35654;PMS1003;21773;50.010;19.972;2023-05-07T09:45:10;6.00;5.00;5.00
35654;PMS1003;21773;50.010;19.972;2023-05-07T09:48:16;5.00;5.00;5.00
35654;PMS1003;21773;50.010;19.972;2023-05-07T09:51:24;5.00;4.00;3.60
35654;PMS1003;21773;50.010;19.972;2023-05-07T09:54:35;5.00;5.00;4.00
35654;PMS1003;21773;50.010;19.972;2023-05-07T09:57:41;7.00;7.00;6.20
35654;PMS1003;21773;50.010;19.972;2023-05-07T10:00:46;5.00;5.00;4.50
35654;PMS1003;21773;50.010;19.972;2023-05-07T10:03:52;7.25;7.00;7.00
35654;PMS1003;21773;50.010;19.972;2023-05-07T10:06:56;7.00;7.00;6.00
35654;PMS1003;21773;50.010;19.972;2023-05-07T10:10:04;7.25;7.25;7.00
35654;PMS1003;21773;50.010;19.972;2023-05-07T10:13:13;7.00;6.60;6.00
35654;PMS1003;21773;50.010;19.972;2023-05-07T10:16:21;5.80;5.80;5.00
35654;PMS1003;21773;50.010;19.972;2023-05-07T10:19:25;8.40;8.40;8.00
35654;PMS1003;21773;50.010;19.972;2023-05-07T10:22:32;6.00;6.00;6.00
35654;PMS1003;21773;50.010;19.972;2023-05-07T10:25:43;5.00;5.00;5.00
35654;PMS1003;21773;50.010;19.972;2023-05-07T10:28:57;6.60;6.00;5.00
35654;PMS1003;21773;50.010;19.972;2023-05-07T10:32:10;6.00;6.00;6.00
35654;PMS1003;21773;50.010;19.972;2023-05-07T10:35:23;4.25;4.25;4.00
35654;PMS1003;21773;50.010;19.972;2023-05-07T10:38:28;6.00;6.00;6.00
35654;PMS1003;21773;50.010;19.972;2023-05-07T10:41:35;6.00;6.00;5.40
35654;PMS1003;21773;50.010;19.972;2023-05-07T10:44:40;9.00;8.00;7.00
35654;PMS1003;21773;50.010;19.972;2023-05-07T10:48:08;7.25;7.00;6.75
35654;PMS1003;21773;50.010;19.972;2023-05-07T10:51:18;9.00;8.60;8.40
35654;PMS1003;21773;50.010;19.972;2023-05-07T10:54:30;5.20;4.60;4.20
35654;PMS1003;21773;50.010;19.972;2023-05-07T10:57:44;10.00;8.40;8.00
35654;PMS1003;21773;50.010;19.972;2023-05-07T11:00:56;8.00;8.00;8.00
35654;PMS1003;21773;50.010;19.972;2023-05-07T11:04:12;5.00;5.00;5.00
35654;PMS1003;21773;50.010;19.972;2023-05-07T11:07:25;8.00;8.00;8.00
35654;PMS1003;21773;50.010;19.972;2023-05-07T11:10:48;7.00;7.00;7.00
35654;PMS1003;21773;50.010;19.972;2023-05-07T11:14:09;9.00;7.00;7.00
35654;PMS1003;21773;50.010;19.972;2023-05-07T11:17:22;6.00;5.40;5.00
35654;PMS1003;21773;50.010;19.972;2023-05-07T11:20:53;8.00;8.00;7.00
35654;PMS1003;21773;50.010;19.972;2023-05-07T11:24:05;9.00;8.00;7.00
35654;PMS1003;21773;50.010;19.972;2023-05-07T11:27:35;10.25;10.00;10.00
35654;PMS1003;21773;50.010;19.972;2023-05-07T11:30:41;9.00;8.00;7.00
35654;PMS1003;21773;50.010;19.972;2023-05-07T11:33:49;8.00;7.20;7.00
35654;PMS1003;21773;50.010;19.972;2023-05-07T11:36:54;7.00;7.00;6.00
35654;PMS1003;21773;50.010;19.972;2023-05-07T11:40:12;4.00;4.00;3.00
35654;PMS1003;21773;50.010;19.972;2023-05-07T11:43:16;6.00;5.00;5.00
35654;PMS1003;21773;50.010;19.972;2023-05-07T11:46:21;6.00;6.00;5.80
35654;PMS1003;21773;50.010;19.972;2023-05-07T11:49:25;7.00;7.00;7.00
35654;PMS1003;21773;50.010;19.972;2023-05-07T11:52:31;6.60;6.00;5.20
35654;PMS1003;21773;50.010;19.972;2023-05-07T11:55:35;8.40;8.00;7.60
35654;PMS1003;21773;50.010;19.972;2023-05-07T11:58:39;6.40;6.40;6.40
35654;PMS1003;21773;50.010;19.972;2023-05-07T12:01:46;5.50;5.50;5.00
35654;PMS1003;21773;50.010;19.972;2023-05-07T12:04:50;5.00;5.00;4.75
35654;PMS1003;21773;50.010;19.972;2023-05-07T12:07:55;6.60;6.60;6.20
35654;PMS1003;21773;50.010;19.972;2023-05-07T12:10:59;7.40;7.40;7.00
35654;PMS1003;21773;50.010;19.972;2023-05-07T12:14:02;7.00;6.00;6.00
35654;PMS1003;21773;50.010;19.972;2023-05-07T12:17:11;7.40;7.40;7.00
35654;PMS1003;21773;50.010;19.972;2023-05-07T12:20:17;7.40;7.40;7.40
35654;PMS1003;21773;50.010;19.972;2023-05-07T12:23:21;9.00;8.40;8.40
35654;PMS1003;21773;50.010;19.972;2023-05-07T12:26:25;7.00;6.00;6.00
35654;PMS1003;21773;50.010;19.972;2023-05-07T12:29:28;5.00;5.00;5.00
35654;PMS1003;21773;50.010;19.972;2023-05-07T12:32:33;7.00;7.00;7.00
35654;PMS1003;21773;50.010;19.972;2023-05-07T12:35:39;7.75;6.25;5.75
35654;PMS1003;21773;50.010;19.972;2023-05-07T12:38:44;6.25;6.00;5.25
35654;PMS1003;21773;50.010;19.972;2023-05-07T12:41:53;6.00;5.80;5.40
35654;PMS1003;21773;50.010;19.972;2023-05-07T12:44:57;9.00;8.80;8.00
35654;PMS1003;21773;50.010;19.972;2023-05-07T12:48:02;7.60;7.60;7.40
35654;PMS1003;21773;50.010;19.972;2023-05-07T12:51:06;8.50;7.50;7.00
35654;PMS1003;21773;50.010;19.972;2023-05-07T12:54:11;9.00;8.50;8.00
35654;PMS1003;21773;50.010;19.972;2023-05-07T12:57:15;9.50;9.50;9.50
35654;PMS1003;21773;50.010;19.972;2023-05-07T13:00:35;8.00;8.00;7.00
35654;PMS1003;21773;50.010;19.972;2023-05-07T13:03:40;5.60;5.60;5.00
35654;PMS1003;21773;50.010;19.972;2023-05-07T13:06:43;7.00;7.00;6.00
35654;PMS1003;21773;50.010;19.972;2023-05-07T13:09:47;8.00;8.00;7.00
35654;PMS1003;21773;50.010;19.972;2023-05-07T13:12:50;6.00;6.00;6.00
35654;PMS1003;21773;50.010;19.972;2023-05-07T13:15:54;7.00;7.00;7.00
35654;PMS1003;21773;50.010;19.972;2023-05-07T13:18:59;7.00;7.00;6.00
35654;PMS1003;21773;50.010;19.972;2023-05-07T13:22:02;8.00;8.00;8.00
35654;PMS1003;21773;50.010;19.972;2023-05-07T13:25:06;7.40;7.40;7.00
35654;PMS1003;21773;50.010;19.972;2023-05-07T13:28:11;10.00;9.40;9.00
35654;PMS1003;21773;50.010;19.972;2023-05-07T13:31:14;10.00;10.00;9.00
35654;PMS1003;21773;50.010;19.972;2023-05-07T13:34:19;10.00;10.00;9.40
35654;PMS1003;21773;50.010;19.972;2023-05-07T13:37:22;11.00;10.00;10.00
35654;PMS1003;21773;50.010;19.972;2023-05-07T13:40:25;10.00;10.00;9.50
35654;PMS1003;21773;50.010;19.972;2023-05-07T13:43:29;8.00;8.00;8.00
35654;PMS1003;21773;50.010;19.972;2023-05-07T13:46:33;8.60;8.00;8.00
35654;PMS1003;21773;50.010;19.972;2023-05-07T13:49:38;9.40;9.40;9.00
35654;PMS1003;21773;50.010;19.972;2023-05-07T13:52:41;12.40;12.00;11.40
35654;PMS1003;21773;50.010;19.972;2023-05-07T13:55:47;7.60;7.60;7.40
35654;PMS1003;21773;50.010;19.972;2023-05-07T13:58:51;8.00;8.00;7.50
35654;PMS1003;21773;50.010;19.972;2023-05-07T14:02:01;10.00;10.00;9.00
35654;PMS1003;21773;50.010;19.972;2023-05-07T14:05:06;11.00;10.00;9.00
35654;PMS1003;21773;50.010;19.972;2023-05-07T14:08:11;10.00;10.00;9.60
35654;PMS1003;21773;50.010;19.972;2023-05-07T14:11:15;11.25;10.25;10.25
35654;PMS1003;21773;50.010;19.972;2023-05-07T14:14:18;8.20;8.00;7.20
35654;PMS1003;21773;50.010;19.972;2023-05-07T14:17:22;11.00;10.40;9.80
35654;PMS1003;21773;50.010;19.972;2023-05-07T14:20:29;12.00;11.50;11.00
35654;PMS1003;21773;50.010;19.972;2023-05-07T14:23:32;9.80;8.80;7.80
35654;PMS1003;21773;50.010;19.972;2023-05-07T14:26:36;10.00;9.00;8.33
35654;PMS1003;21773;50.010;19.972;2023-05-07T14:29:39;12.00;12.00;11.00
35654;PMS1003;21773;50.010;19.972;2023-05-07T14:32:42;13.00;13.00;12.40
35654;PMS1003;21773;50.010;19.972;2023-05-07T14:35:47;13.00;11.60;11.00
35654;PMS1003;21773;50.010;19.972;2023-05-07T14:38:51;10.20;9.60;7.60
35654;PMS1003;21773;50.010;19.972;2023-05-07T14:41:55;12.20;11.20;11.00
35654;PMS1003;21773;50.010;19.972;2023-05-07T14:45:00;7.75;7.00;6.75
35654;PMS1003;21773;50.010;19.972;2023-05-07T14:48:03;9.25;9.25;9.00
35654;PMS1003;21773;50.010;19.972;2023-05-07T14:51:08;12.00;11.00;11.00
35654;PMS1003;21773;50.010;19.972;2023-05-07T14:54:12;12.50;12.00;11.50
35654;PMS1003;21773;50.010;19.972;2023-05-07T14:57:16;12.00;12.00;11.00
35654;PMS1003;21773;50.010;19.972;2023-05-07T15:00:20;10.80;10.80;9.80
35654;PMS1003;21773;50.010;19.972;2023-05-07T15:03:23;11.00;11.00;10.80
35654;PMS1003;21773;50.010;19.972;2023-05-07T15:06:28;12.60;12.00;11.60
35654;PMS1003;21773;50.010;19.972;2023-05-07T15:09:32;12.00;11.60;10.60
35654;PMS1003;21773;50.010;19.972;2023-05-07T15:12:36;11.00;11.00;11.00
35654;PMS1003;21773;50.010;19.972;2023-05-07T15:15:39;11.00;11.00;10.00
35654;PMS1003;21773;50.010;19.972;2023-05-07T15:18:44;10.75;10.75;9.75
35654;PMS1003;21773;50.010;19.972;2023-05-07T15:21:49;13.00;12.20;11.80
35654;PMS1003;21773;50.010;19.972;2023-05-07T15:24:52;11.00;11.00;11.00
35654;PMS1003;21773;50.010;19.972;2023-05-07T15:27:56;11.00;10.25;10.00
35654;PMS1003;21773;50.010;19.972;2023-05-07T15:30:59;13.00;13.00;12.00
35654;PMS1003;21773;50.010;19.972;2023-05-07T15:34:03;11.00;10.00;9.60
35654;PMS1003;21773;50.010;19.972;2023-05-07T15:37:07;9.00;9.00;8.60
35654;PMS1003;21773;50.010;19.972;2023-05-07T15:40:11;11.60;11.00;11.00
35654;PMS1003;21773;50.010;19.972;2023-05-07T15:43:15;8.00;8.00;7.00
35654;PMS1003;21773;50.010;19.972;2023-05-07T15:46:18;11.00;10.00;10.00
35654;PMS1003;21773;50.010;19.972;2023-05-07T15:49:23;11.00;10.00;10.00
35654;PMS1003;21773;50.010;19.972;2023-05-07T15:52:27;12.00;12.00;11.00
35654;PMS1003;21773;50.010;19.972;2023-05-07T15:55:31;10.50;10.50;9.50
35654;PMS1003;21773;50.010;19.972;2023-05-07T15:58:35;8.00;7.20;7.00
35654;PMS1003;21773;50.010;19.972;2023-05-07T16:01:38;11.00;11.00;10.00
35654;PMS1003;21773;50.010;19.972;2023-05-07T16:04:46;12.80;12.80;12.00
35654;PMS1003;21773;50.010;19.972;2023-05-07T16:07:54;10.00;9.00;8.00
35654;PMS1003;21773;50.010;19.972;2023-05-07T16:10:58;9.67;9.67;9.00
35654;PMS1003;21773;50.010;19.972;2023-05-07T16:14:02;9.00;9.00;8.20
35654;PMS1003;21773;50.010;19.972;2023-05-07T16:17:05;9.00;9.00;8.00
35654;PMS1003;21773;50.010;19.972;2023-05-07T16:20:09;9.40;9.00;9.00
35654;PMS1003;21773;50.010;19.972;2023-05-07T16:23:15;13.00;12.00;11.75
35654;PMS1003;21773;50.010;19.972;2023-05-07T16:26:18;10.00;9.00;9.00
35654;PMS1003;21773;50.010;19.972;2023-05-07T16:29:22;9.50;9.50;9.00
35654;PMS1003;21773;50.010;19.972;2023-05-07T16:32:25;11.00;10.60;9.40
35654;PMS1003;21773;50.010;19.972;2023-05-07T16:35:29;10.40;10.40;9.40
35654;PMS1003;21773;50.010;19.972;2023-05-07T16:38:34;11.25;10.75;9.25
35654;PMS1003;21773;50.010;19.972;2023-05-07T16:41:37;11.00;10.00;9.00
35654;PMS1003;21773;50.010;19.972;2023-05-07T16:44:41;11.80;11.20;10.80
35654;PMS1003;21773;50.010;19.972;2023-05-07T16:47:44;10.40;9.40;8.00
35654;PMS1003;21773;50.010;19.972;2023-05-07T16:50:47;11.40;11.00;10.00
35654;PMS1003;21773;50.010;19.972;2023-05-07T16:53:52;7.50;6.50;5.50
35654;PMS1003;21773;50.010;19.972;2023-05-07T16:56:56;12.60;12.00;10.60
35654;PMS1003;21773;50.010;19.972;2023-05-07T17:00:00;11.75;11.75;10.75
35654;PMS1003;21773;50.010;19.972;2023-05-07T17:03:08;13.60;12.40;10.40
35654;PMS1003;21773;50.010;19.972;2023-05-07T17:06:11;12.40;12.00;10.20
35654;PMS1003;21773;50.010;19.972;2023-05-07T17:09:17;13.60;12.60;11.60
35654;PMS1003;21773;50.010;19.972;2023-05-07T17:12:20;16.00;15.00;14.00
35654;PMS1003;21773;50.010;19.972;2023-05-07T17:15:24;15.75;15.50;14.50
35654;PMS1003;21773;50.010;19.972;2023-05-07T17:18:27;14.00;13.40;12.40
35654;PMS1003;21773;50.010;19.972;2023-05-07T17:21:30;14.00;13.00;11.50
35654;PMS1003;21773;50.010;19.972;2023-05-07T17:24:35;12.00;11.20;10.00
35654;PMS1003;21773;50.010;19.972;2023-05-07T17:27:38;14.25;14.00;13.00
35654;PMS1003;21773;50.010;19.972;2023-05-07T17:30:42;17.00;15.25;14.00
35654;PMS1003;21773;50.010;19.972;2023-05-07T17:33:47;11.50;11.50;11.00